Time;durP1;ratioP1;P1;durP2;ratioP2;P2;SDS_P1;SDS_P2;PMS_P1;PMS_P2;Temp;Humidity;BMP_temperature;BMP_pressure;BME280_temperature;BME280_humidity;BME280_pressure;Samples;Min_cycle;Max_cycle;Signal;HPM_P1;HPM_P2
2023/08/08 00:00:13;;;;;;;5.83;3.27;;;;;;;13.04;97.51;101305.34;5250320;28;20038;-80
2023/08/08 00:02:44;;;;;;;7.00;2.87;;;;;;;13.06;97.41;101310.56;5248120;28;20037;-80
2023/08/08 00:05:16;;;;;;;10.57;4.40;;;;;;;13.07;97.64;101305.31;5244698;28;20025;-80
2023/08/08 00:07:47;;;;;;;7.77;3.60;;;;;;;13.03;97.70;101311.47;5245283;28;20077;-80
2023/08/08 00:10:18;;;;;;;5.73;3.37;;;;;;;13.03;98.28;101301.00;5245419;28;20025;-80
2023/08/08 00:12:50;;;;;;;7.03;3.33;;;;;;;13.02;98.27;101304.47;5246584;28;20040;-81
2023/08/08 00:15:21;;;;;;;7.13;2.77;;;;;;;12.99;98.77;101304.53;5244083;28;20100;-81
2023/08/08 00:17:52;;;;;;;5.50;3.00;;;;;;;12.97;98.59;101300.22;5245602;28;20033;-81
2023/08/08 00:20:24;;;;;;;6.67;3.30;;;;;;;13.00;98.87;101306.28;5244208;28;20040;-80
2023/08/08 00:22:55;;;;;;;5.67;3.10;;;;;;;13.03;98.81;101308.00;5243771;28;20041;-81
2023/08/08 00:25:27;;;;;;;6.40;2.70;;;;;;;13.11;98.57;101308.72;5243542;28;20489;-79
2023/08/08 00:27:58;;;;;;;6.50;2.97;;;;;;;13.10;98.25;101310.47;5242376;28;20041;-79
2023/08/08 00:30:29;;;;;;;4.23;2.70;;;;;;;13.18;97.87;101310.34;5243053;28;20492;-80
2023/08/08 00:33:01;;;;;;;4.50;2.97;;;;;;;13.17;98.22;101313.00;5243403;28;20466;-80
2023/08/08 00:35:32;;;;;;;5.63;3.27;;;;;;;13.14;98.24;101308.69;5243062;28;20091;-82
2023/08/08 00:38:04;;;;;;;6.27;3.63;;;;;;;13.11;98.82;101304.34;5242068;28;20068;-81
2023/08/08 00:40:35;;;;;;;6.83;2.83;;;;;;;13.11;98.67;101296.50;5242701;28;20493;-80
2023/08/08 00:43:06;;;;;;;7.27;3.03;;;;;;;13.14;98.51;101295.59;5242815;28;20485;-80
2023/08/08 00:45:40;;;;;;;11.13;3.90;;;;;;;13.17;98.36;101294.66;5242761;28;20543;-80
2023/08/08 00:48:11;;;;;;;5.90;3.00;;;;;;;13.24;98.72;101288.47;5242815;28;20029;-81
2023/08/08 00:50:44;;;;;;;5.93;2.90;;;;;;;13.22;98.57;101295.50;5242420;28;20029;-80
2023/08/08 00:53:15;;;;;;;;;;;;;;;13.31;97.68;101287.47;5242854;28;20088;-79
2023/08/08 00:55:47;;;;;;;5.18;2.60;;;;;;;13.28;98.12;101284.91;5242140;28;19925;-81
2023/08/08 00:58:19;;;;;;;8.57;2.93;;;;;;;13.29;97.76;101281.41;5242475;28;20037;-80
2023/08/08 01:00:52;;;;;;;7.03;3.75;;;;;;;13.28;97.92;101279.66;5242465;28;20099;-82
2023/08/08 01:03:23;;;;;;;6.05;2.78;;;;;;;13.29;97.98;101284.88;5242201;28;20057;-80
2023/08/08 01:06:31;;;;;;;6.57;3.13;;;;;;;13.29;98.28;101291.88;5241702;28;20064;-81
2023/08/08 01:10:01;;;;;;;7.95;2.88;;;;;;;13.27;98.78;101296.28;5240004;28;20046;-79
2023/08/08 01:12:40;;;;;;;6.93;2.97;;;;;;;13.27;98.63;101291.91;5212125;28;20087;-81
2023/08/08 01:15:13;;;;;;;6.45;3.22;;;;;;;13.29;98.73;101294.50;5241881;28;20480;-80
2023/08/08 01:17:45;;;;;;;;;;;;;;;13.41;97.74;101296.97;5242644;28;20065;-79
2023/08/08 01:20:17;;;;;;;6.13;3.30;;;;;;;13.31;98.59;101285.75;5242636;28;19955;-79
2023/08/08 01:22:55;;;;;;;5.50;3.17;;;;;;;13.37;98.66;101281.31;5243128;28;20057;-79
2023/08/08 01:25:26;;;;;;;5.97;3.20;;;;;;;13.35;98.86;101275.22;5242517;28;20475;-80
2023/08/08 01:27:57;;;;;;;5.50;2.70;;;;;;;13.38;98.78;101280.41;5242255;28;20064;-80
2023/08/08 01:30:29;;;;;;;8.70;3.53;;;;;;;13.33;99.10;101283.13;5241800;28;20034;-80
2023/08/08 01:33:01;;;;;;;6.87;2.87;;;;;;;13.34;99.39;101284.84;5240688;28;20465;-81
2023/08/08 01:35:43;;;;;;;6.97;3.25;;;;;;;13.34;99.82;101294.47;5240924;28;20492;-81
2023/08/08 01:38:22;;;;;;;8.38;3.70;;;;;;;13.33;99.82;101283.13;5241700;28;20026;-79
2023/08/08 01:40:56;;;;;;;8.77;3.67;;;;;;;13.36;100.00;101284.81;5241516;28;20465;-81
2023/08/08 01:43:29;;;;;;;7.40;2.97;;;;;;;13.34;100.00;101274.38;5241212;28;20548;-80
2023/08/08 01:46:02;;;;;;;6.45;3.50;;;;;;;13.34;100.00;101283.97;5241677;28;20048;-79
2023/08/08 01:48:34;;;;;;;7.45;3.78;;;;;;;13.35;100.00;101276.09;5241578;28;20128;-80
2023/08/08 01:51:05;;;;;;;7.23;3.50;;;;;;;13.36;100.00;101276.97;5240282;28;20136;-80
2023/08/08 01:53:36;;;;;;;7.03;3.17;;;;;;;13.35;100.00;101275.22;5241720;28;20037;-81
2023/08/08 01:56:08;;;;;;;11.63;4.13;;;;;;;13.30;100.00;101267.44;5241394;28;20031;-81
2023/08/08 01:58:39;;;;;;;12.23;4.13;;;;;;;13.29;100.00;101273.53;5241650;28;20061;-81
2023/08/08 02:01:11;;;;;;;13.93;3.47;;;;;;;13.20;100.00;101266.72;5241447;28;20040;-82
2023/08/08 02:03:42;;;;;;;9.73;4.10;;;;;;;13.12;100.00;101266.84;5241538;28;20071;-83
2023/08/08 02:06:13;;;;;;;10.13;3.80;;;;;;;13.02;100.00;101257.38;5240980;28;20029;-81
2023/08/08 02:08:46;;;;;;;8.90;3.33;;;;;;;12.94;100.00;101254.00;5241451;28;20096;-81
2023/08/08 02:11:17;;;;;;;9.50;3.93;;;;;;;12.89;100.00;101255.84;5241065;28;20053;-81
2023/08/08 02:13:49;;;;;;;13.07;4.53;;;;;;;12.84;100.00;101253.28;5240116;28;20495;-81
2023/08/08 02:16:20;;;;;;;7.43;3.50;;;;;;;12.77;100.00;101256.91;5241149;28;20029;-81
2023/08/08 02:18:51;;;;;;;8.97;4.03;;;;;;;12.73;100.00;101257.81;5241512;28;20033;-80
2023/08/08 02:21:23;;;;;;;12.13;4.90;;;;;;;12.70;100.00;101256.13;5241680;28;20047;-81
2023/08/08 02:23:54;;;;;;;10.57;3.63;;;;;;;12.71;100.00;101251.75;5242012;28;20053;-81
2023/08/08 02:26:26;;;;;;;8.10;4.50;;;;;;;12.69;100.00;101249.16;5245230;28;20461;-79
2023/08/08 02:28:57;;;;;;;9.23;4.17;;;;;;;12.69;100.00;101243.06;5244958;28;20041;-81
2023/08/08 02:31:28;;;;;;;10.67;3.97;;;;;;;12.70;100.00;101242.16;5245112;28;20032;-80
2023/08/08 02:34:00;;;;;;;10.07;4.67;;;;;;;12.74;100.00;101236.88;5244873;28;20069;-81
2023/08/08 02:36:31;;;;;;;9.37;4.27;;;;;;;12.77;100.00;101235.97;5244860;28;20033;-80
2023/08/08 02:39:03;;;;;;;9.60;4.17;;;;;;;12.80;100.00;101237.66;5244754;28;20104;-80
2023/08/08 02:41:34;;;;;;;8.97;4.60;;;;;;;12.83;100.00;101235.88;5244869;28;20477;-80
2023/08/08 02:44:06;;;;;;;9.60;4.37;;;;;;;12.79;100.00;101239.41;5243710;28;20378;-80
2023/08/08 02:46:37;;;;;;;11.65;4.18;;;;;;;12.82;100.00;101228.91;5243720;28;20068;-79
2023/08/08 02:49:09;;;;;;;14.80;3.90;;;;;;;12.83;100.00;101225.41;5244447;28;20051;-81
2023/08/08 02:51:40;;;;;;;9.97;4.13;;;;;;;12.82;100.00;101228.06;5244794;28;20120;-82
2023/08/08 02:54:12;;;;;;;10.13;4.90;;;;;;;12.81;100.00;101223.69;5244382;28;20029;-79
2023/08/08 02:56:43;;;;;;;9.40;4.00;;;;;;;12.81;100.00;101215.84;5244692;28;20590;-80
2023/08/08 02:59:14;;;;;;;11.80;4.87;;;;;;;12.81;100.00;101221.09;5244569;28;20025;-80
2023/08/08 03:01:47;;;;;;;12.83;5.10;;;;;;;12.74;100.00;101217.69;5254550;28;20029;-79
2023/08/08 03:04:18;;;;;;;13.32;4.00;;;;;;;12.75;100.00;101222.03;5257892;28;20083;-82
2023/08/08 03:06:50;;;;;;;12.40;5.53;;;;;;;12.65;100.00;101216.06;5256036;28;20029;-80
2023/08/08 03:09:21;;;;;;;13.97;5.10;;;;;;;12.65;100.00;101225.69;5253743;28;20079;-81
2023/08/08 03:11:53;;;;;;;10.60;4.63;;;;;;;12.61;100.00;101221.38;5253080;28;20040;-80
2023/08/08 03:14:24;;;;;;;11.00;5.50;;;;;;;12.63;100.00;101220.47;5251677;28;20480;-80
2023/08/08 03:16:55;;;;;;;12.10;4.97;;;;;;;12.66;100.00;101227.41;5253512;28;20120;-80
2023/08/08 03:19:27;;;;;;;11.90;5.73;;;;;;;12.71;100.00;101226.44;5252288;28;20476;-79
2023/08/08 03:21:59;;;;;;;16.75;5.45;;;;;;;12.73;100.00;101223.81;5249451;28;20472;-80
2023/08/08 03:24:30;;;;;;;12.73;5.90;;;;;;;12.73;100.00;101219.44;5250663;28;20040;-79
2023/08/08 03:27:02;;;;;;;12.90;5.13;;;;;;;12.72;100.00;101214.25;5249306;28;20116;-78
2023/08/08 03:29:33;;;;;;;9.83;4.27;;;;;;;12.73;100.00;101216.81;5246434;28;20501;-79
2023/08/08 03:32:05;;;;;;;15.87;6.43;;;;;;;12.75;100.00;101204.59;5244798;28;20441;-79
2023/08/08 03:34:36;;;;;;;12.75;5.65;;;;;;;12.76;100.00;101211.53;5243528;28;20034;-78
2023/08/08 03:37:08;;;;;;;11.77;5.30;;;;;;;12.76;100.00;101214.16;5244178;28;20140;-79
2023/08/08 03:39:39;;;;;;;11.27;6.00;;;;;;;12.75;100.00;101207.22;5244997;28;20080;-80
2023/08/08 03:42:10;;;;;;;13.17;5.00;;;;;;;12.74;100.00;101220.31;5243104;28;20034;-80
2023/08/08 03:44:42;;;;;;;12.93;5.63;;;;;;;12.68;100.00;101212.56;5244313;28;20105;-79
2023/08/08 03:47:13;;;;;;;17.17;6.03;;;;;;;12.62;100.00;101212.63;5243888;28;20029;-79
2023/08/08 03:49:45;;;;;;;15.90;5.87;;;;;;;12.54;100.00;101208.41;5243499;28;20080;-81
2023/08/08 03:52:16;;;;;;;12.37;5.83;;;;;;;12.48;100.00;101215.47;5243346;28;20037;-77
2023/08/08 03:54:47;;;;;;;14.43;6.57;;;;;;;12.43;100.00;101205.06;5243063;28;20515;-78
2023/08/08 03:57:19;;;;;;;11.07;5.40;;;;;;;12.38;100.00;101206.84;5243224;28;20359;-79
2023/08/08 03:59:50;;;;;;;14.90;6.40;;;;;;;12.28;100.00;101200.03;5242887;28;20112;-80
2023/08/08 04:02:22;;;;;;;12.63;5.80;;;;;;;12.24;100.00;101204.44;5243073;28;20037;-80
2023/08/08 04:04:53;;;;;;;14.80;5.80;;;;;;;12.19;100.00;101209.72;5242826;28;20381;-79
2023/08/08 04:07:24;;;;;;;12.80;6.07;;;;;;;12.16;100.00;101203.69;5242970;28;20053;-79
2023/08/08 04:09:56;;;;;;;16.00;6.40;;;;;;;12.13;100.00;101206.31;5242018;28;20051;-79
2023/08/08 04:12:27;;;;;;;16.53;7.37;;;;;;;12.10;100.00;101202.00;5241588;28;20053;-79
2023/08/08 04:14:58;;;;;;;14.50;5.87;;;;;;;12.08;100.00;101206.38;5242969;28;20118;-80
2023/08/08 04:17:30;;;;;;;24.07;7.20;;;;;;;12.09;100.00;101199.41;5242863;28;20040;-80
2023/08/08 04:20:01;;;;;;;12.90;6.33;;;;;;;11.99;100.00;101204.75;5242792;28;20052;-79
2023/08/08 04:22:32;;;;;;;16.93;6.67;;;;;;;11.93;100.00;101212.66;5242823;28;20359;-81
2023/08/08 04:25:05;;;;;;;15.93;6.87;;;;;;;11.95;100.00;101208.28;5242900;28;20104;-80
2023/08/08 04:27:36;;;;;;;14.98;6.10;;;;;;;11.93;100.00;101210.06;5242664;28;20021;-82
2023/08/08 04:30:08;;;;;;;17.47;7.67;;;;;;;11.90;100.00;101202.22;5240957;28;20033;-80
2023/08/08 04:32:39;;;;;;;17.37;7.60;;;;;;;11.85;100.00;101204.88;5242572;28;20116;-81
2023/08/08 04:35:11;;;;;;;18.23;8.57;;;;;;;11.83;100.00;101205.75;5241214;28;20034;-80
2023/08/08 04:37:43;;;;;;;17.97;6.80;;;;;;;11.84;100.00;101200.53;5242395;28;20111;-80
2023/08/08 04:40:14;;;;;;;20.85;6.93;;;;;;;11.84;100.00;101210.97;5224906;28;20029;-80
2023/08/08 04:42:46;;;;;;;24.47;8.20;;;;;;;11.90;100.00;101212.66;5242558;28;20030;-80
2023/08/08 04:45:17;;;;;;;16.53;7.80;;;;;;;11.95;100.00;101210.03;5240840;28;20045;-79
2023/08/08 04:47:49;;;;;;;11.93;6.73;;;;;;;11.99;100.00;101211.72;5242000;28;20029;-81
2023/08/08 04:50:20;;;;;;;16.07;7.83;;;;;;;12.01;100.00;101209.94;5242178;28;20112;-81
2023/08/08 04:52:52;;;;;;;19.10;7.10;;;;;;;12.01;100.00;101210.81;5242242;28;20033;-81
2023/08/08 04:55:23;;;;;;;14.07;7.03;;;;;;;11.97;100.00;101210.88;5242173;28;20043;-79
2023/08/08 04:57:54;;;;;;;20.83;7.67;;;;;;;11.96;100.00;101211.75;5242410;28;20044;-80
2023/08/08 05:00:26;;;;;;;17.63;8.10;;;;;;;11.99;100.00;101207.38;5242124;28;20029;-80
2023/08/08 05:02:57;;;;;;;21.37;9.43;;;;;;;12.01;100.00;101205.59;5241998;28;20069;-80
2023/08/08 05:05:29;;;;;;;16.77;7.13;;;;;;;11.99;100.00;101207.38;5241534;28;20496;-79
2023/08/08 05:08:00;;;;;;;13.93;7.37;;;;;;;11.99;100.00;101202.16;5241922;28;20049;-79
2023/08/08 05:10:31;;;;;;;16.90;8.30;;;;;;;11.95;100.00;101202.19;5240288;28;20037;-78
2023/08/08 05:13:03;;;;;;;16.70;9.60;;;;;;;11.92;100.00;101207.47;5241940;28;20057;-78
2023/08/08 05:15:34;;;;;;;21.20;8.47;;;;;;;11.94;100.00;101206.53;5240758;28;20026;-79
2023/08/08 05:18:06;;;;;;;20.07;7.17;;;;;;;11.95;100.00;101212.66;5241745;28;20087;-79
2023/08/08 05:20:37;;;;;;;18.20;7.77;;;;;;;11.95;100.00;101202.19;5241641;28;20033;-79
2023/08/08 05:23:08;;;;;;;14.87;7.47;;;;;;;11.98;100.00;101204.78;5242205;28;20056;-80
2023/08/08 05:25:40;;;;;;;17.03;7.17;;;;;;;12.00;100.00;101200.38;5240468;28;20030;-79
2023/08/08 05:28:12;;;;;;;18.60;7.80;;;;;;;12.06;100.00;101204.66;5256902;28;20072;-79
2023/08/08 05:30:44;;;;;;;18.27;7.00;;;;;;;12.12;100.00;101204.59;5262254;28;20068;-79
2023/08/08 05:33:15;;;;;;;15.57;8.13;;;;;;;12.16;100.00;101206.28;5262541;28;20069;-80
2023/08/08 05:35:47;;;;;;;13.27;7.10;;;;;;;12.21;100.00;101212.31;5261963;28;20061;-78
2023/08/08 05:38:18;;;;;;;16.00;7.53;;;;;;;12.26;100.00;101215.72;5262507;28;20025;-80
2023/08/08 05:40:50;;;;;;;15.43;9.00;;;;;;;12.32;100.00;101217.41;5262742;28;20037;-81
2023/08/08 05:43:21;;;;;;;21.33;8.03;;;;;;;12.42;100.00;101223.38;5262359;28;20033;-81
2023/08/08 05:45:53;;;;;;;18.33;8.17;;;;;;;12.47;100.00;101213.72;5262219;28;20032;-80
2023/08/08 05:48:24;;;;;;;18.00;8.07;;;;;;;12.54;100.00;101212.75;5262209;28;20214;-79
2023/08/08 05:50:58;;;;;;;18.63;7.50;;;;;;;12.63;100.00;101220.47;5262170;28;20029;-80
2023/08/08 05:53:29;;;;;;;16.00;7.63;;;;;;;12.68;100.00;101216.03;5261583;28;20048;-77
2023/08/08 05:56:01;;;;;;;21.33;7.40;;;;;;;12.76;100.00;101208.91;5262156;28;20447;-80
2023/08/08 05:58:32;;;;;;;16.27;7.87;;;;;;;12.89;100.00;101221.81;5261877;28;20027;-82
2023/08/08 06:01:09;;;;;;;30.27;9.07;;;;;;;12.96;100.00;101223.47;5266234;28;20056;-81
2023/08/08 06:03:40;;;;;;;22.77;8.25;;;;;;;13.07;100.00;101215.44;5266084;28;20119;-79
2023/08/08 06:06:12;;;;;;;15.97;6.37;;;;;;;13.15;100.00;101224.03;5265639;28;20385;-79
2023/08/08 06:08:43;;;;;;;17.23;6.87;;;;;;;13.25;100.00;101225.63;5266358;28;20502;-79
2023/08/08 06:11:14;;;;;;;18.93;7.07;;;;;;;13.30;100.00;101229.00;5266291;28;20064;-78
2023/08/08 06:13:46;;;;;;;19.57;7.20;;;;;;;13.35;100.00;101228.97;5265946;28;20139;-79
2023/08/08 06:16:18;;;;;;;11.80;5.77;;;;;;;13.47;100.00;101225.25;5265926;28;20029;-80
2023/08/08 06:18:49;;;;;;;18.27;8.02;;;;;;;13.62;100.00;101229.34;5265841;28;20033;-81
2023/08/08 06:21:21;;;;;;;12.80;6.63;;;;;;;13.72;100.00;101238.78;5265741;28;20083;-80
2023/08/08 06:23:54;;;;;;;22.00;7.23;;;;;;;13.76;100.00;101235.19;5264563;28;20029;-80
2023/08/08 06:26:26;;;;;;;18.65;6.43;;;;;;;13.73;100.00;101237.88;5265281;28;20033;-80
2023/08/08 06:28:57;;;;;;;16.07;6.77;;;;;;;13.72;100.00;101238.78;5265446;28;20558;-80
2023/08/08 06:31:29;;;;;;;18.63;6.70;;;;;;;13.68;100.00;101247.59;5265546;28;20037;-79
2023/08/08 06:34:01;;;;;;;14.38;6.65;;;;;;;13.75;100.00;101245.72;5265846;28;20033;-78
2023/08/08 06:36:32;;;;;;;14.90;5.83;;;;;;;13.89;100.00;101235.84;5263764;28;20036;-80
2023/08/08 06:39:05;;;;;;;13.53;6.57;;;;;;;14.05;100.00;101241.66;5265512;28;20025;-79
2023/08/08 06:41:38;;;;;;;14.00;6.95;;;;;;;14.18;100.00;101235.28;5265338;28;20044;-79
2023/08/08 06:44:10;;;;;;;21.52;8.52;;;;;;;14.26;100.00;101240.34;5265523;28;20032;-80
2023/08/08 06:46:41;;;;;;;18.90;6.55;;;;;;;14.40;100.00;101237.44;5265100;28;20067;-79
2023/08/08 06:49:13;;;;;;;15.60;6.13;;;;;;;14.44;100.00;101233.88;5265387;28;20033;-80
2023/08/08 06:51:44;;;;;;;14.10;5.57;;;;;;;14.54;100.00;101231.91;5263913;28;20047;-80
2023/08/08 06:54:16;;;;;;;13.33;6.23;;;;;;;14.59;100.00;101238.78;5265277;28;20350;-79
2023/08/08 06:56:47;;;;;;;13.50;5.60;;;;;;;14.66;100.00;101234.25;5265123;28;20333;-79
2023/08/08 06:59:18;;;;;;;9.37;4.93;;;;;;;14.84;100.00;101234.75;5265086;28;20125;-80
2023/08/08 07:01:50;;;;;;;12.40;4.60;;;;;;;14.98;100.00;101237.06;5263682;28;20032;-79
2023/08/08 07:04:22;;;;;;;13.27;5.30;;;;;;;15.11;99.13;101246.34;5264785;28;20067;-77
2023/08/08 07:06:53;;;;;;;11.38;4.13;;;;;;;15.28;98.54;101238.94;5264320;28;20040;-80
2023/08/08 07:09:25;;;;;;;14.13;5.40;;;;;;;15.36;97.46;101243.09;5246534;28;20041;-79
2023/08/08 07:11:56;;;;;;;11.03;4.20;;;;;;;15.51;96.88;101250.59;5264715;28;20344;-80
2023/08/08 07:14:28;;;;;;;12.13;4.37;;;;;;;15.60;96.07;101244.22;5264793;28;20111;-78
2023/08/08 07:16:59;;;;;;;12.43;5.07;;;;;;;15.72;94.86;101243.06;5264970;28;20029;-79
2023/08/08 07:19:31;;;;;;;11.63;4.30;;;;;;;15.80;93.09;101243.75;5264690;28;20037;-78
2023/08/08 07:22:03;;;;;;;10.30;4.67;;;;;;;15.95;92.47;101253.81;5263406;28;20025;-80
2023/08/08 07:24:34;;;;;;;14.33;4.23;;;;;;;16.06;91.92;101240.38;5264931;28;20033;-78
2023/08/08 07:27:06;;;;;;;10.43;4.30;;;;;;;16.03;92.11;101245.72;5264687;28;20033;-79
2023/08/08 07:29:37;;;;;;;13.60;6.27;;;;;;;15.89;92.49;101240.88;5264361;28;20033;-80
2023/08/08 07:32:09;;;;;;;11.20;4.30;;;;;;;16.00;91.83;101246.69;5264027;28;20052;-79
2023/08/08 07:34:40;;;;;;;17.97;4.30;;;;;;;15.89;91.85;101246.13;5264528;28;20476;-78
2023/08/08 07:37:11;;;;;;;12.00;3.97;;;;;;;15.91;92.60;101241.69;5264353;28;20036;-80
2023/08/08 07:39:43;;;;;;;13.50;4.53;;;;;;;16.04;90.75;101248.31;5264468;28;20111;-80
2023/08/08 07:42:14;;;;;;;10.70;5.17;;;;;;;16.24;89.30;101246.88;5264777;28;20037;-80
2023/08/08 07:44:45;;;;;;;9.83;4.90;;;;;;;16.36;89.09;101236.00;5264165;28;20029;-80
2023/08/08 07:47:17;;;;;;;14.43;4.30;;;;;;;16.75;88.36;101242.75;5263925;28;20033;-78
2023/08/08 07:49:48;;;;;;;9.53;3.70;;;;;;;17.05;83.95;101240.94;5263895;28;20033;-80
2023/08/08 07:52:19;;;;;;;10.83;3.67;;;;;;;17.13;82.63;101246.81;5263780;28;20523;-81
2023/08/08 07:54:51;;;;;;;9.93;3.80;;;;;;;16.96;82.25;101257.03;5263970;28;20029;-78
2023/08/08 07:57:22;;;;;;;9.90;3.40;;;;;;;16.58;79.08;101240.63;5264329;28;20025;-80
2023/08/08 07:59:54;;;;;;;10.40;3.17;;;;;;;16.90;81.21;101246.69;5263730;28;20041;-80
2023/08/08 08:02:25;;;;;;;7.37;3.67;;;;;;;16.92;79.58;101258.91;5245987;28;20032;-80
2023/08/08 08:04:56;;;;;;;7.83;3.77;;;;;;;16.72;80.88;101248.09;5263837;28;20025;-79
2023/08/08 08:07:28;;;;;;;7.80;3.57;;;;;;;16.93;80.94;101243.97;5263052;28;20117;-79
2023/08/08 08:09:59;;;;;;;9.97;4.03;;;;;;;16.77;80.57;101252.28;5263781;28;20134;-78
2023/08/08 08:12:31;;;;;;;7.43;3.40;;;;;;;16.53;81.50;101250.44;5263541;28;20036;-80
2023/08/08 08:15:03;;;;;;;13.10;4.13;;;;;;;16.65;81.36;101241.31;5263678;28;20036;-79
2023/08/08 08:17:34;;;;;;;9.05;3.25;;;;;;;16.68;79.32;101236.81;5263421;28;20036;-81
2023/08/08 08:20:10;;;;;;;9.47;3.87;;;;;;;16.72;80.74;101241.06;5263093;28;20115;-79
2023/08/08 08:22:41;;;;;;;9.93;3.88;;;;;;;16.99;80.67;101253.44;5262739;28;20033;-79
2023/08/08 08:25:14;;;;;;;5.90;3.80;;;;;;;17.29;78.66;101248.91;5263233;28;20476;-79
2023/08/08 08:27:45;;;;;;;11.63;4.30;;;;;;;17.38;77.58;101253.03;5263254;28;20032;-79
2023/08/08 08:30:18;;;;;;;11.00;5.07;;;;;;;17.26;76.06;101257.81;5263235;28;20037;-78
2023/08/08 08:32:49;;;;;;;16.13;5.85;;;;;;;17.22;77.06;101257.97;5262938;28;20107;-78
2023/08/08 08:35:21;;;;;;;8.23;4.10;;;;;;;17.30;78.29;101251.50;5262774;28;20060;-78
2023/08/08 08:37:52;;;;;;;6.17;3.20;;;;;;;17.33;76.99;101245.28;5262955;28;20041;-79
2023/08/08 08:40:24;;;;;;;10.40;3.70;;;;;;;17.21;75.62;101249.19;5262996;28;20035;-78
2023/08/08 08:42:55;;;;;;;6.23;3.33;;;;;;;17.42;75.68;101252.00;5262988;28;20087;-79
2023/08/08 08:45:29;;;;;;;5.77;2.87;;;;;;;17.49;74.63;101253.53;5261987;28;20272;-78
2023/08/08 08:48:01;;;;;;;10.07;4.13;;;;;;;17.64;75.29;101252.13;5261862;28;20067;-80
2023/08/08 08:50:33;;;;;;;11.27;3.67;;;;;;;17.56;75.40;101254.19;5263128;28;20040;-79
2023/08/08 08:53:06;;;;;;;7.78;3.55;;;;;;;17.41;75.82;101258.22;5262704;28;20483;-78
2023/08/08 08:55:38;;;;;;;10.57;4.03;;;;;;;17.50;76.28;101250.00;5261428;28;20033;-80
2023/08/08 08:58:10;;;;;;;11.15;4.43;;;;;;;17.92;74.01;101257.34;5262943;28;20048;-80
2023/08/08 09:00:44;;;;;;;6.03;2.70;;;;;;;17.59;74.49;101254.09;5262360;28;20032;-79
2023/08/08 09:03:16;;;;;;;13.07;3.17;;;;;;;17.48;73.01;101265.88;5262505;28;20033;-78
2023/08/08 09:05:48;;;;;;;9.90;3.30;;;;;;;17.48;74.58;101264.97;5261056;28;20072;-80
2023/08/08 09:08:19;;;;;;;8.38;2.70;;;;;;;17.43;76.45;101262.50;5261067;28;20136;-79
2023/08/08 09:10:51;;;;;;;7.47;2.97;;;;;;;17.41;73.26;101260.84;5261123;28;20126;-82
2023/08/08 09:13:25;;;;;;;9.40;2.87;;;;;;;17.46;73.80;101265.03;5262316;28;20029;-79
2023/08/08 09:15:56;;;;;;;7.10;2.60;;;;;;;17.47;73.39;101258.00;5262484;28;20033;-79
2023/08/08 09:18:28;;;;;;;6.60;2.70;;;;;;;17.58;72.83;101269.03;5262619;28;20032;-77
2023/08/08 09:21:00;;;;;;;6.47;2.60;;;;;;;17.53;74.03;101263.03;5261261;28;20128;-78
2023/08/08 09:23:31;;;;;;;6.32;2.63;;;;;;;17.20;73.51;101259.78;5262267;28;20033;-78
2023/08/08 09:26:02;;;;;;;6.47;3.13;;;;;;;16.89;74.78;101256.38;5262246;28;20086;-79
2023/08/08 09:28:34;;;;;;;8.50;2.47;;;;;;;16.89;74.46;101259.00;5262226;28;20029;-80
2023/08/08 09:31:05;;;;;;;6.97;3.03;;;;;;;17.19;75.11;101263.31;5262186;28;20575;-80
2023/08/08 09:33:39;;;;;;;6.97;3.40;;;;;;;17.19;74.14;101258.91;5261223;28;20468;-79
2023/08/08 09:36:15;;;;;;;8.07;2.88;;;;;;;17.43;74.98;101261.66;5262580;28;20040;-80
2023/08/08 09:38:46;;;;;;;6.25;3.25;;;;;;;17.60;73.48;101267.22;5263211;28;20037;-80
2023/08/08 09:41:20;;;;;;;7.87;3.40;;;;;;;17.81;73.23;101262.97;5263429;28;20033;-80
2023/08/08 09:43:52;;;;;;;12.50;4.57;;;;;;;18.01;72.57;101271.97;5262902;28;20048;-81
2023/08/08 09:46:24;;;;;;;7.70;3.92;;;;;;;17.97;70.74;101267.72;5262422;28;20021;-80
2023/08/08 09:48:55;;;;;;;6.30;3.50;;;;;;;18.37;70.07;101264.47;5262948;28;20025;-78
2023/08/08 09:51:27;;;;;;;9.38;4.30;;;;;;;18.25;68.52;101267.56;5262880;28;20147;-78
2023/08/08 09:54:00;;;;;;;6.53;3.70;;;;;;;18.36;67.63;101272.44;5262526;28;20514;-81
2023/08/08 09:56:33;;;;;;;8.88;3.65;;;;;;;18.31;67.60;101275.25;5262618;28;20037;-79
2023/08/08 09:59:06;;;;;;;8.20;3.00;;;;;;;18.84;67.32;101265.38;5263668;28;20064;-78
2023/08/08 10:01:40;;;;;;;6.18;2.95;;;;;;;18.46;67.00;101271.16;5266135;28;20326;-79
2023/08/08 10:04:13;;;;;;;8.27;2.97;;;;;;;19.27;67.24;101264.47;5269232;28;20137;-80
2023/08/08 10:06:44;;;;;;;8.95;3.30;;;;;;;20.13;62.80;101262.56;5269046;28;20033;-81
2023/08/08 10:09:16;;;;;;;5.23;2.17;;;;;;;19.98;59.67;101290.59;5263228;28;20063;-79
2023/08/08 10:11:48;;;;;;;6.78;2.63;;;;;;;19.16;61.80;101264.06;5263045;28;20025;-79
2023/08/08 10:14:19;;;;;;;5.75;2.58;;;;;;;18.96;62.35;101254.28;5263699;28;20060;-80
2023/08/08 10:16:51;;;;;;;7.33;2.90;;;;;;;20.00;62.06;101258.75;5262217;28;20029;-78
2023/08/08 10:19:23;;;;;;;7.03;2.47;;;;;;;21.06;54.59;101263.56;5261014;28;20104;-79
2023/08/08 10:22:04;;;;;;;11.57;2.35;;;;;;;21.85;53.34;101261.31;5262163;28;20037;-80
2023/08/08 10:24:35;;;;;;;6.28;2.88;;;;;;;21.56;52.02;101262.84;5262052;28;20124;-80
2023/08/08 10:27:07;;;;;;;4.07;2.30;;;;;;;21.80;51.49;101271.31;5261626;28;20029;-81
2023/08/08 10:29:39;;;;;;;8.75;2.40;;;;;;;20.88;52.67;101262.66;5261871;28;20454;-80
2023/08/08 10:32:10;;;;;;;5.72;2.45;;;;;;;20.26;55.39;101249.63;5261795;28;20037;-81
2023/08/08 10:34:42;;;;;;;3.93;2.53;;;;;;;20.48;54.90;101261.84;5261427;28;20056;-78
2023/08/08 10:37:17;;;;;;;3.95;2.17;;;;;;;20.79;54.80;101265.75;5261305;28;20021;-80
2023/08/08 10:39:57;;;;;;;3.60;1.92;;;;;;;19.79;54.99;101269.34;5261536;28;20468;-81
2023/08/08 10:42:30;;;;;;;7.13;2.10;;;;;;;19.05;58.61;101258.38;5261720;28;20067;-78
2023/08/08 10:45:03;;;;;;;6.32;2.78;;;;;;;18.54;61.08;101268.25;5262329;28;20033;-80
2023/08/08 10:47:35;;;;;;;4.15;2.00;;;;;;;18.00;63.12;101278.13;5265427;28;20036;-80
2023/08/08 10:50:13;;;;;;;7.05;2.47;;;;;;;17.75;65.49;101276.34;5265474;28;20060;-79
2023/08/08 10:52:54;;;;;;;4.85;2.35;;;;;;;17.23;68.35;101268.44;5266227;28;20086;-83
2023/08/08 10:55:36;;;;;;;8.55;2.55;;;;;;;17.16;70.60;101266.06;5266352;28;20036;-80
2023/08/08 10:58:19;;;;;;;10.90;2.67;;;;;;;17.44;70.68;101264.22;5266147;28;20024;-80
2023/08/08 11:00:51;;;;;;;;;;;;;;;17.87;69.91;101261.91;5265192;28;20086;-81
2023/08/08 11:03:23;;;;;;;6.38;2.42;;;;;;;18.77;69.07;101248.84;5266363;28;20126;-80
2023/08/08 11:05:55;;;;;;;7.30;2.53;;;;;;;20.26;61.46;101252.28;5265633;28;20056;-82
2023/08/08 11:08:27;;;;;;;5.27;2.50;;;;;;;21.25;55.02;101251.09;5265637;28;20045;-81
2023/08/08 11:10:59;;;;;;;6.25;2.47;;;;;;;21.41;53.38;101258.28;5265525;28;20036;-80
2023/08/08 11:13:31;;;;;;;5.07;2.30;;;;;;;21.15;52.93;101246.34;5265617;28;20055;-79
2023/08/08 11:16:03;;;;;;;6.60;2.95;;;;;;;21.29;52.51;101246.50;5265691;28;20033;-79
2023/08/08 11:18:35;;;;;;;6.13;2.60;;;;;;;21.31;51.55;101249.94;5266277;28;20036;-81
2023/08/08 11:21:11;;;;;;;3.75;2.13;;;;;;;22.56;46.98;101252.22;5265795;28;20029;-81
2023/08/08 11:23:46;;;;;;;6.43;2.42;;;;;;;22.54;48.14;101235.50;5264073;28;20033;-81
2023/08/08 11:26:19;;;;;;;4.07;1.83;;;;;;;21.95;47.55;101240.44;5265487;28;20021;-80
2023/08/08 11:28:51;;;;;;;5.65;2.00;;;;;;;21.54;48.38;101232.88;5265442;28;20021;-79
2023/08/08 11:31:24;;;;;;;3.72;1.92;;;;;;;22.80;49.15;101226.97;5265497;28;20031;-82
2023/08/08 11:33:55;;;;;;;;;;;;;;;24.54;44.76;101243.13;5266148;28;20119;-81
2023/08/08 11:36:32;;;;;;;6.07;2.23;;;;;;;22.04;47.51;101232.00;5263692;28;20008;-81
2023/08/08 11:39:07;;;;;;;5.63;2.53;;;;;;;22.06;48.36;101236.34;5265771;28;20087;-81
2023/08/08 11:41:40;;;;;;;7.60;2.72;;;;;;;21.64;48.97;101243.88;5264412;28;20056;-81